sensor_id;sensor_type;location;lat;lon;timestamp;pressure;altitude;pressure_sealevel;temperature;humidity
13029;BME280;6581;42.662;23.402;2023-03-04T00:03:20;95380.34;;;6.60;100.00
13029;BME280;6581;42.662;23.402;2023-03-04T00:05:58;95367.84;;;6.57;100.00
13029;BME280;6581;42.662;23.402;2023-03-04T00:09:07;95359.50;;;6.67;100.00
13029;BME280;6581;42.662;23.402;2023-03-04T00:11:35;95378.03;;;6.83;100.00
13029;BME280;6581;42.662;23.402;2023-03-04T00:14:25;95372.25;;;6.78;100.00
13029;BME280;6581;42.662;23.402;2023-03-04T00:17:40;95361.81;;;6.69;100.00
13029;BME280;6581;42.662;23.402;2023-03-04T00:21:07;95363.03;;;6.72;100.00
13029;BME280;6581;42.662;23.402;2023-03-04T00:23:47;95364.22;;;6.74;100.00
13029;BME280;6581;42.662;23.402;2023-03-04T00:26:32;95359.28;;;6.73;100.00
13029;BME280;6581;42.662;23.402;2023-03-04T00:29:34;95367.75;;;6.78;100.00
13029;BME280;6581;42.662;23.402;2023-03-04T00:32:06;95364.22;;;6.86;100.00
13029;BME280;6581;42.662;23.402;2023-03-04T00:34:34;95354.44;;;6.75;100.00
13029;BME280;6581;42.662;23.402;2023-03-04T00:37:06;95365.75;;;6.87;100.00
13029;BME280;6581;42.662;23.402;2023-03-04T00:43:28;95362.88;;;6.92;100.00
13029;BME280;6581;42.662;23.402;2023-03-04T00:46:25;95359.38;;;6.88;100.00
13029;BME280;6581;42.662;23.402;2023-03-04T00:52:51;95343.94;;;6.87;100.00
13029;BME280;6581;42.662;23.402;2023-03-04T00:55:36;95358.06;;;6.94;100.00
13029;BME280;6581;42.662;23.402;2023-03-04T01:01:22;95353.88;;;7.05;100.00
13029;BME280;6581;42.662;23.402;2023-03-04T01:07:26;95344.03;;;6.90;100.00
13029;BME280;6581;42.662;23.402;2023-03-04T01:10:14;95353.25;;;6.84;100.00
13029;BME280;6581;42.662;23.402;2023-03-04T01:16:34;95352.78;;;6.94;100.00
13029;BME280;6581;42.662;23.402;2023-03-04T01:19:59;95338.66;;;6.87;100.00
13029;BME280;6581;42.662;23.402;2023-03-04T01:23:17;95321.44;;;6.65;100.00
13029;BME280;6581;42.662;23.402;2023-03-04T01:26:29;95335.03;;;6.79;100.00
13029;BME280;6581;42.662;23.402;2023-03-04T01:29:48;95330.00;;;6.62;100.00
13029;BME280;6581;42.662;23.402;2023-03-04T01:32:50;95338.56;;;6.59;100.00
13029;BME280;6581;42.662;23.402;2023-03-04T01:35:35;95335.28;;;6.50;100.00
13029;BME280;6581;42.662;23.402;2023-03-04T01:38:03;95326.28;;;6.51;100.00
13029;BME280;6581;42.662;23.402;2023-03-04T01:41:02;95330.78;;;6.50;100.00
13029;BME280;6581;42.662;23.402;2023-03-04T01:43:35;95323.53;;;6.47;100.00
13029;BME280;6581;42.662;23.402;2023-03-04T01:46:04;95317.41;;;6.43;100.00
13029;BME280;6581;42.662;23.402;2023-03-04T01:48:35;95319.72;;;6.45;100.00
13029;BME280;6581;42.662;23.402;2023-03-04T01:51:43;95315.88;;;6.42;100.00
13029;BME280;6581;42.662;23.402;2023-03-04T01:54:29;95320.03;;;6.31;100.00
13029;BME280;6581;42.662;23.402;2023-03-04T01:57:17;95307.78;;;6.23;100.00
13029;BME280;6581;42.662;23.402;2023-03-04T02:00:16;95294.63;;;6.23;100.00
13029;BME280;6581;42.662;23.402;2023-03-04T02:03:10;95312.72;;;6.37;100.00
13029;BME280;6581;42.662;23.402;2023-03-04T02:06:02;95313.03;;;6.35;100.00
13029;BME280;6581;42.662;23.402;2023-03-04T02:08:46;95310.38;;;6.47;100.00
13029;BME280;6581;42.662;23.402;2023-03-04T02:11:34;95291.97;;;6.35;100.00
13029;BME280;6581;42.662;23.402;2023-03-04T02:14:10;95312.13;;;6.55;100.00
13029;BME280;6581;42.662;23.402;2023-03-04T02:16:43;95305.09;;;6.72;100.00
13029;BME280;6581;42.662;23.402;2023-03-04T02:19:26;95313.97;;;6.79;100.00
13029;BME280;6581;42.662;23.402;2023-03-04T02:22:06;95310.72;;;6.58;100.00
13029;BME280;6581;42.662;23.402;2023-03-04T02:25:01;95300.06;;;6.66;100.00
13029;BME280;6581;42.662;23.402;2023-03-04T02:28:11;95312.13;;;6.67;100.00
13029;BME280;6581;42.662;23.402;2023-03-04T02:30:47;95311.91;;;6.60;100.00
13029;BME280;6581;42.662;23.402;2023-03-04T02:33:24;95300.97;;;6.58;100.00
13029;BME280;6581;42.662;23.402;2023-03-04T02:35:52;95297.78;;;6.53;100.00
13029;BME280;6581;42.662;23.402;2023-03-04T02:38:22;95299.44;;;6.45;100.00
13029;BME280;6581;42.662;23.402;2023-03-04T02:41:05;95301.50;;;6.40;100.00
13029;BME280;6581;42.662;23.402;2023-03-04T02:43:58;95287.59;;;6.27;100.00
13029;BME280;6581;42.662;23.402;2023-03-04T02:46:44;95289.88;;;6.29;100.00
13029;BME280;6581;42.662;23.402;2023-03-04T02:49:37;95272.59;;;6.28;100.00
13029;BME280;6581;42.662;23.402;2023-03-04T02:52:41;95295.25;;;6.44;100.00
13029;BME280;6581;42.662;23.402;2023-03-04T02:55:36;95296.69;;;6.54;100.00
13029;BME280;6581;42.662;23.402;2023-03-04T02:58:46;95291.75;;;6.40;100.00
13029;BME280;6581;42.662;23.402;2023-03-04T03:01:35;95295.16;;;6.41;100.00
13029;BME280;6581;42.662;23.402;2023-03-04T03:04:08;95277.19;;;6.31;100.00
13029;BME280;6581;42.662;23.402;2023-03-04T03:06:49;95281.88;;;6.37;100.00
13029;BME280;6581;42.662;23.402;2023-03-04T03:09:19;95291.66;;;6.49;100.00
13029;BME280;6581;42.662;23.402;2023-03-04T03:11:47;95299.50;;;6.61;100.00
13029;BME280;6581;42.662;23.402;2023-03-04T03:14:16;95298.13;;;6.39;100.00
13029;BME280;6581;42.662;23.402;2023-03-04T03:16:50;95283.31;;;6.35;100.00
13029;BME280;6581;42.662;23.402;2023-03-04T03:19:44;95299.50;;;6.61;100.00
13029;BME280;6581;42.662;23.402;2023-03-04T03:22:25;95296.88;;;6.61;100.00
13029;BME280;6581;42.662;23.402;2023-03-04T03:25:03;95301.59;;;6.67;100.00
13029;BME280;6581;42.662;23.402;2023-03-04T03:27:40;95303.66;;;6.74;100.00
13029;BME280;6581;42.662;23.402;2023-03-04T03:30:12;95294.47;;;6.68;100.00
13029;BME280;6581;42.662;23.402;2023-03-04T03:32:46;95294.75;;;6.79;100.00
13029;BME280;6581;42.662;23.402;2023-03-04T03:35:24;95288.00;;;6.78;100.00
13029;BME280;6581;42.662;23.402;2023-03-04T03:38:04;95278.56;;;6.64;100.00
13029;BME280;6581;42.662;23.402;2023-03-04T03:40:40;95290.75;;;6.69;100.00
13029;BME280;6581;42.662;23.402;2023-03-04T03:43:10;95285.28;;;6.50;100.00
13029;BME280;6581;42.662;23.402;2023-03-04T03:46:28;95275.31;;;6.31;100.00
13029;BME280;6581;42.662;23.402;2023-03-04T03:49:12;95281.00;;;6.33;100.00
13029;BME280;6581;42.662;23.402;2023-03-04T03:51:52;95282.00;;;6.29;100.00
13029;BME280;6581;42.662;23.402;2023-03-04T03:54:22;95275.66;;;6.17;100.00
13029;BME280;6581;42.662;23.402;2023-03-04T03:57:02;95263.72;;;6.08;100.00
13029;BME280;6581;42.662;23.402;2023-03-04T03:59:32;95270.50;;;6.09;100.00
13029;BME280;6581;42.662;23.402;2023-03-04T04:01:59;95277.72;;;6.24;100.00
13029;BME280;6581;42.662;23.402;2023-03-04T04:04:35;95273.78;;;6.18;100.00
13029;BME280;6581;42.662;23.402;2023-03-04T04:07:10;95266.75;;;6.10;100.00
13029;BME280;6581;42.662;23.402;2023-03-04T04:10:20;95272.69;;;6.07;100.00
13029;BME280;6581;42.662;23.402;2023-03-04T04:12:56;95275.63;;;6.05;100.00
13029;BME280;6581;42.662;23.402;2023-03-04T04:16:02;95277.94;;;5.95;100.00
13029;BME280;6581;42.662;23.402;2023-03-04T04:18:42;95257.00;;;5.86;100.00
13029;BME280;6581;42.662;23.402;2023-03-04T04:21:52;95252.78;;;5.73;100.00
13029;BME280;6581;42.662;23.402;2023-03-04T04:24:37;95264.84;;;5.74;100.00
13029;BME280;6581;42.662;23.402;2023-03-04T04:27:11;95265.50;;;5.71;100.00
13029;BME280;6581;42.662;23.402;2023-03-04T04:30:02;95274.25;;;5.75;100.00
13029;BME280;6581;42.662;23.402;2023-03-04T04:33:21;95277.22;;;5.73;100.00
13029;BME280;6581;42.662;23.402;2023-03-04T04:36:17;95275.69;;;5.72;100.00
13029;BME280;6581;42.662;23.402;2023-03-04T04:39:12;95271.97;;;5.73;100.00
13029;BME280;6581;42.662;23.402;2023-03-04T04:41:44;95264.28;;;5.68;100.00
13029;BME280;6581;42.662;23.402;2023-03-04T04:44:43;95270.97;;;5.66;100.00
13029;BME280;6581;42.662;23.402;2023-03-04T04:47:21;95268.22;;;5.62;100.00
13029;BME280;6581;42.662;23.402;2023-03-04T04:49:57;95269.63;;;5.60;100.00
13029;BME280;6581;42.662;23.402;2023-03-04T04:52:39;95276.75;;;5.59;100.00
13029;BME280;6581;42.662;23.402;2023-03-04T04:55:21;95274.56;;;5.49;100.00
13029;BME280;6581;42.662;23.402;2023-03-04T04:57:59;95268.47;;;5.36;100.00
13029;BME280;6581;42.662;23.402;2023-03-04T05:00:34;95285.41;;;5.60;100.00
13029;BME280;6581;42.662;23.402;2023-03-04T05:03:03;95284.31;;;5.61;100.00
13029;BME280;6581;42.662;23.402;2023-03-04T05:05:43;95284.75;;;5.63;100.00
13029;BME280;6581;42.662;23.402;2023-03-04T05:08:28;95288.91;;;5.64;100.00
13029;BME280;6581;42.662;23.402;2023-03-04T05:11:22;95296.09;;;5.43;100.00
13029;BME280;6581;42.662;23.402;2023-03-04T05:14:14;95294.53;;;5.42;100.00
13029;BME280;6581;42.662;23.402;2023-03-04T05:17:11;95300.38;;;5.47;100.00
13029;BME280;6581;42.662;23.402;2023-03-04T05:19:56;95290.63;;;5.48;100.00
13029;BME280;6581;42.662;23.402;2023-03-04T05:22:26;95296.00;;;5.51;100.00
13029;BME280;6581;42.662;23.402;2023-03-04T05:25:42;95295.13;;;5.59;100.00
13029;BME280;6581;42.662;23.402;2023-03-04T05:28:24;95308.03;;;5.52;100.00
13029;BME280;6581;42.662;23.402;2023-03-04T05:31:01;95298.31;;;5.53;100.00
13029;BME280;6581;42.662;23.402;2023-03-04T05:33:47;95309.72;;;5.69;100.00
13029;BME280;6581;42.662;23.402;2023-03-04T05:36:38;95309.50;;;5.62;100.00
13029;BME280;6581;42.662;23.402;2023-03-04T05:39:09;95322.31;;;5.63;100.00
13029;BME280;6581;42.662;23.402;2023-03-04T05:41:45;95318.38;;;5.69;100.00
13029;BME280;6581;42.662;23.402;2023-03-04T05:44:47;95313.13;;;5.69;100.00
13029;BME280;6581;42.662;23.402;2023-03-04T05:47:32;95321.22;;;5.97;100.00
13029;BME280;6581;42.662;23.402;2023-03-04T05:50:44;95311.06;;;5.75;100.00
13029;BME280;6581;42.662;23.402;2023-03-04T05:53:16;95322.78;;;5.77;100.00
13029;BME280;6581;42.662;23.402;2023-03-04T05:55:51;95319.16;;;5.70;100.00
13029;BME280;6581;42.662;23.402;2023-03-04T05:58:19;95332.78;;;5.84;100.00
13029;BME280;6581;42.662;23.402;2023-03-04T06:01:13;95326.81;;;5.96;100.00
13029;BME280;6581;42.662;23.402;2023-03-04T06:03:57;95319.34;;;5.98;100.00
13029;BME280;6581;42.662;23.402;2023-03-04T06:06:35;95322.97;;;6.05;100.00
13029;BME280;6581;42.662;23.402;2023-03-04T06:09:03;95339.09;;;6.16;100.00
13029;BME280;6581;42.662;23.402;2023-03-04T06:11:49;95315.19;;;5.97;100.00
13029;BME280;6581;42.662;23.402;2023-03-04T06:14:43;95324.28;;;5.99;100.00
13029;BME280;6581;42.662;23.402;2023-03-04T06:17:46;95341.53;;;6.21;100.00
13029;BME280;6581;42.662;23.402;2023-03-04T06:20:39;95342.50;;;6.16;100.00
13029;BME280;6581;42.662;23.402;2023-03-04T06:23:19;95321.34;;;6.13;100.00
13029;BME280;6581;42.662;23.402;2023-03-04T06:25:52;95343.16;;;6.26;100.00
13029;BME280;6581;42.662;23.402;2023-03-04T06:28:23;95340.63;;;6.29;100.00
13029;BME280;6581;42.662;23.402;2023-03-04T06:31:14;95337.59;;;6.27;100.00
13029;BME280;6581;42.662;23.402;2023-03-04T06:34:16;95340.19;;;6.15;100.00
13029;BME280;6581;42.662;23.402;2023-03-04T06:36:48;95333.28;;;6.10;100.00
13029;BME280;6581;42.662;23.402;2023-03-04T06:39:59;95348.44;;;6.13;100.00
13029;BME280;6581;42.662;23.402;2023-03-04T06:42:38;95344.69;;;6.14;100.00
13029;BME280;6581;42.662;23.402;2023-03-04T06:45:27;95345.34;;;6.11;100.00
13029;BME280;6581;42.662;23.402;2023-03-04T06:48:00;95361.38;;;6.18;100.00
13029;BME280;6581;42.662;23.402;2023-03-04T06:50:43;95340.53;;;6.26;100.00
13029;BME280;6581;42.662;23.402;2023-03-04T06:53:47;95348.88;;;6.28;100.00
13029;BME280;6581;42.662;23.402;2023-03-04T06:56:31;95357.88;;;6.27;100.00
13029;BME280;6581;42.662;23.402;2023-03-04T06:59:29;95355.91;;;6.36;100.00
13029;BME280;6581;42.662;23.402;2023-03-04T07:02:05;95356.31;;;6.38;100.00
13029;BME280;6581;42.662;23.402;2023-03-04T07:04:41;95362.03;;;6.40;100.00
13029;BME280;6581;42.662;23.402;2023-03-04T07:07:13;95353.91;;;6.33;100.00
13029;BME280;6581;42.662;23.402;2023-03-04T07:13:01;95352.03;;;6.33;100.00
13029;BME280;6581;42.662;23.402;2023-03-04T07:15:31;95355.78;;;6.44;100.00
13029;BME280;6581;42.662;23.402;2023-03-04T07:18:05;95357.44;;;6.49;100.00
13029;BME280;6581;42.662;23.402;2023-03-04T07:20:54;95359.28;;;6.48;100.00
13029;BME280;6581;42.662;23.402;2023-03-04T07:23:51;95352.69;;;6.42;100.00
13029;BME280;6581;42.662;23.402;2023-03-04T07:26:18;95358.63;;;6.51;100.00
13029;BME280;6581;42.662;23.402;2023-03-04T07:28:45;95366.19;;;6.53;100.00
13029;BME280;6581;42.662;23.402;2023-03-04T07:34:31;95354.59;;;6.54;100.00
13029;BME280;6581;42.662;23.402;2023-03-04T07:37:10;95352.50;;;6.47;100.00
13029;BME280;6581;42.662;23.402;2023-03-04T07:39:53;95350.50;;;6.56;100.00
13029;BME280;6581;42.662;23.402;2023-03-04T07:42:32;95352.03;;;6.82;100.00
13029;BME280;6581;42.662;23.402;2023-03-04T07:45:18;95367.91;;;6.97;100.00
13029;BME280;6581;42.662;23.402;2023-03-04T07:47:57;95370.97;;;7.11;100.00
13029;BME280;6581;42.662;23.402;2023-03-04T07:50:44;95362.25;;;7.35;100.00
13029;BME280;6581;42.662;23.402;2023-03-04T07:53:25;95369.81;;;7.37;100.00
13029;BME280;6581;42.662;23.402;2023-03-04T07:56:44;95349.75;;;7.20;100.00
13029;BME280;6581;42.662;23.402;2023-03-04T07:59:52;95360.59;;;7.31;100.00
13029;BME280;6581;42.662;23.402;2023-03-04T08:03:04;95337.16;;;7.13;100.00
13029;BME280;6581;42.662;23.402;2023-03-04T08:05:43;95353.66;;;7.38;100.00
13029;BME280;6581;42.662;23.402;2023-03-04T08:08:28;95354.34;;;7.35;100.00
13029;BME280;6581;42.662;23.402;2023-03-04T08:11:51;95358.50;;;7.36;100.00
13029;BME280;6581;42.662;23.402;2023-03-04T08:14:47;95359.00;;;7.54;100.00
13029;BME280;6581;42.662;23.402;2023-03-04T08:20:28;95341.25;;;7.39;100.00
13029;BME280;6581;42.662;23.402;2023-03-04T08:23:24;95353.72;;;7.54;100.00
13029;BME280;6581;42.662;23.402;2023-03-04T08:26:32;95357.13;;;7.54;100.00
13029;BME280;6581;42.662;23.402;2023-03-04T08:29:22;95347.69;;;7.53;100.00
13029;BME280;6581;42.662;23.402;2023-03-04T08:31:57;95348.84;;;7.68;100.00
13029;BME280;6581;42.662;23.402;2023-03-04T08:35:05;95352.94;;;7.53;100.00
13029;BME280;6581;42.662;23.402;2023-03-04T08:37:55;95353.19;;;7.76;100.00
13029;BME280;6581;42.662;23.402;2023-03-04T08:40:40;95345.81;;;7.82;100.00
13029;BME280;6581;42.662;23.402;2023-03-04T08:43:20;95335.16;;;7.78;100.00
13029;BME280;6581;42.662;23.402;2023-03-04T08:45:50;95346.31;;;7.87;100.00
13029;BME280;6581;42.662;23.402;2023-03-04T08:48:43;95342.59;;;8.04;100.00
13029;BME280;6581;42.662;23.402;2023-03-04T08:51:25;95328.72;;;8.07;100.00
13029;BME280;6581;42.662;23.402;2023-03-04T08:54:20;95339.59;;;8.33;100.00
13029;BME280;6581;42.662;23.402;2023-03-04T08:57:29;95341.34;;;8.45;98.58
13029;BME280;6581;42.662;23.402;2023-03-04T09:00:14;95344.06;;;8.49;96.60
13029;BME280;6581;42.662;23.402;2023-03-04T09:03:01;95316.91;;;8.48;96.68
13029;BME280;6581;42.662;23.402;2023-03-04T09:05:43;95335.63;;;8.59;95.27
13029;BME280;6581;42.662;23.402;2023-03-04T09:08:35;95336.22;;;8.68;92.90
13029;BME280;6581;42.662;23.402;2023-03-04T09:11:19;95345.69;;;9.04;90.80
13029;BME280;6581;42.662;23.402;2023-03-04T09:14:07;95325.38;;;9.08;90.81
13029;BME280;6581;42.662;23.402;2023-03-04T09:16:57;95334.38;;;9.42;89.27
13029;BME280;6581;42.662;23.402;2023-03-04T09:19:38;95327.84;;;9.55;88.91
13029;BME280;6581;42.662;23.402;2023-03-04T09:22:11;95335.50;;;9.41;87.12
13029;BME280;6581;42.662;23.402;2023-03-04T09:24:48;95322.81;;;9.50;87.96
13029;BME280;6581;42.662;23.402;2023-03-04T09:27:36;95330.69;;;9.65;85.48
13029;BME280;6581;42.662;23.402;2023-03-04T09:30:08;95333.44;;;9.72;85.10
13029;BME280;6581;42.662;23.402;2023-03-04T09:33:00;95318.03;;;9.55;84.75
13029;BME280;6581;42.662;23.402;2023-03-04T09:36:05;95306.34;;;9.56;83.72
13029;BME280;6581;42.662;23.402;2023-03-04T09:42:32;95309.00;;;9.56;83.68
13029;BME280;6581;42.662;23.402;2023-03-04T09:45:46;95325.91;;;9.94;83.11
13029;BME280;6581;42.662;23.402;2023-03-04T09:48:58;95307.53;;;9.82;84.39
13029;BME280;6581;42.662;23.402;2023-03-04T09:51:50;95310.38;;;9.50;85.29
13029;BME280;6581;42.662;23.402;2023-03-04T09:54:51;95308.50;;;9.31;85.05
13029;BME280;6581;42.662;23.402;2023-03-04T09:58:05;95309.75;;;9.57;86.07
13029;BME280;6581;42.662;23.402;2023-03-04T10:00:57;95307.22;;;9.64;84.87
13029;BME280;6581;42.662;23.402;2023-03-04T10:03:50;95311.06;;;9.66;83.48
13029;BME280;6581;42.662;23.402;2023-03-04T10:06:25;95296.72;;;9.90;82.32
13029;BME280;6581;42.662;23.402;2023-03-04T10:09:24;95292.91;;;9.88;83.06
13029;BME280;6581;42.662;23.402;2023-03-04T10:12:03;95280.59;;;10.18;81.94
13029;BME280;6581;42.662;23.402;2023-03-04T10:15:38;95291.09;;;10.14;78.63
13029;BME280;6581;42.662;23.402;2023-03-04T10:18:24;95300.63;;;10.42;76.94
13029;BME280;6581;42.662;23.402;2023-03-04T10:21:33;95287.59;;;10.56;77.63
13029;BME280;6581;42.662;23.402;2023-03-04T10:24:13;95287.47;;;10.72;76.81
13029;BME280;6581;42.662;23.402;2023-03-04T10:26:49;95273.41;;;10.68;78.78
13029;BME280;6581;42.662;23.402;2023-03-04T10:29:59;95280.44;;;10.56;78.84
13029;BME280;6581;42.662;23.402;2023-03-04T10:32:44;95275.81;;;10.27;80.39
13029;BME280;6581;42.662;23.402;2023-03-04T10:35:43;95274.53;;;10.40;80.37
13029;BME280;6581;42.662;23.402;2023-03-04T10:38:23;95266.66;;;10.74;78.16
13029;BME280;6581;42.662;23.402;2023-03-04T10:41:17;95263.69;;;10.49;78.45
13029;BME280;6581;42.662;23.402;2023-03-04T10:44:14;95261.63;;;10.65;78.06
13029;BME280;6581;42.662;23.402;2023-03-04T10:47:02;95260.31;;;10.52;77.07
13029;BME280;6581;42.662;23.402;2023-03-04T10:49:55;95241.03;;;10.81;76.52
13029;BME280;6581;42.662;23.402;2023-03-04T10:52:39;95237.34;;;10.89;75.93
13029;BME280;6581;42.662;23.402;2023-03-04T10:55:46;95240.69;;;10.56;77.07
13029;BME280;6581;42.662;23.402;2023-03-04T10:58:52;95244.13;;;10.57;76.46
13029;BME280;6581;42.662;23.402;2023-03-04T11:01:52;95229.69;;;10.28;79.53
13029;BME280;6581;42.662;23.402;2023-03-04T11:04:34;95215.31;;;10.03;79.39
13029;BME280;6581;42.662;23.402;2023-03-04T11:07:14;95224.88;;;10.34;78.31
13029;BME280;6581;42.662;23.402;2023-03-04T11:09:43;95221.63;;;10.74;77.60
13029;BME280;6581;42.662;23.402;2023-03-04T11:12:12;95222.00;;;10.72;76.01
13029;BME280;6581;42.662;23.402;2023-03-04T11:14:45;95220.31;;;10.60;74.82
13029;BME280;6581;42.662;23.402;2023-03-04T11:17:22;95214.34;;;10.67;75.26
13029;BME280;6581;42.662;23.402;2023-03-04T11:19:56;95205.09;;;10.84;75.72
13029;BME280;6581;42.662;23.402;2023-03-04T11:22:24;95202.59;;;10.94;75.22
13029;BME280;6581;42.662;23.402;2023-03-04T11:24:57;95192.16;;;11.08;73.06
13029;BME280;6581;42.662;23.402;2023-03-04T11:27:35;95199.00;;;11.13;73.27
13029;BME280;6581;42.662;23.402;2023-03-04T11:30:35;95186.72;;;11.31;71.74
13029;BME280;6581;42.662;23.402;2023-03-04T11:33:11;95183.25;;;11.27;71.28
13029;BME280;6581;42.662;23.402;2023-03-04T11:35:46;95176.56;;;11.40;73.66
13029;BME280;6581;42.662;23.402;2023-03-04T11:38:17;95172.44;;;11.46;73.34
13029;BME280;6581;42.662;23.402;2023-03-04T11:40:48;95174.22;;;11.32;73.55
13029;BME280;6581;42.662;23.402;2023-03-04T11:43:24;95172.59;;;11.64;72.07
13029;BME280;6581;42.662;23.402;2023-03-04T11:49:20;95174.41;;;11.53;69.66
13029;BME280;6581;42.662;23.402;2023-03-04T11:51:59;95165.47;;;11.72;70.02
13029;BME280;6581;42.662;23.402;2023-03-04T11:54:33;95160.34;;;11.93;70.16
13029;BME280;6581;42.662;23.402;2023-03-04T11:57:05;95156.44;;;11.76;68.66
13029;BME280;6581;42.662;23.402;2023-03-04T11:59:55;95155.94;;;11.64;69.15
13029;BME280;6581;42.662;23.402;2023-03-04T12:02:45;95144.34;;;11.42;70.02
13029;BME280;6581;42.662;23.402;2023-03-04T12:05:25;95153.56;;;11.15;71.34
13029;BME280;6581;42.662;23.402;2023-03-04T12:08:20;95134.72;;;11.23;71.11
13029;BME280;6581;42.662;23.402;2023-03-04T12:10:55;95137.94;;;11.06;72.02
13029;BME280;6581;42.662;23.402;2023-03-04T12:17:00;95130.94;;;10.87;74.20
13029;BME280;6581;42.662;23.402;2023-03-04T12:19:39;95131.97;;;10.76;74.78
13029;BME280;6581;42.662;23.402;2023-03-04T12:22:24;95125.00;;;10.64;75.72
13029;BME280;6581;42.662;23.402;2023-03-04T12:25:11;95127.47;;;10.50;77.85
13029;BME280;6581;42.662;23.402;2023-03-04T12:27:49;95123.66;;;10.47;76.37
13029;BME280;6581;42.662;23.402;2023-03-04T12:30:29;95133.81;;;10.42;77.03
13029;BME280;6581;42.662;23.402;2023-03-04T12:33:07;95123.41;;;10.26;77.52
13029;BME280;6581;42.662;23.402;2023-03-04T12:35:40;95122.53;;;10.18;78.76
13029;BME280;6581;42.662;23.402;2023-03-04T12:38:37;95121.97;;;10.06;78.86
13029;BME280;6581;42.662;23.402;2023-03-04T12:41:28;95118.38;;;9.95;78.90
13029;BME280;6581;42.662;23.402;2023-03-04T12:44:07;95109.84;;;10.05;80.67
13029;BME280;6581;42.662;23.402;2023-03-04T12:46:45;95112.53;;;10.08;79.81
13029;BME280;6581;42.662;23.402;2023-03-04T12:49:36;95102.66;;;10.05;82.62
13029;BME280;6581;42.662;23.402;2023-03-04T12:52:12;95107.66;;;10.10;80.36
13029;BME280;6581;42.662;23.402;2023-03-04T12:54:45;95106.66;;;10.18;79.57
13029;BME280;6581;42.662;23.402;2023-03-04T12:57:16;95111.81;;;10.38;79.48
13029;BME280;6581;42.662;23.402;2023-03-04T12:59:50;95096.78;;;10.45;77.49
13029;BME280;6581;42.662;23.402;2023-03-04T13:02:34;95091.22;;;10.54;77.33
13029;BME280;6581;42.662;23.402;2023-03-04T13:05:21;95090.63;;;10.38;78.71
13029;BME280;6581;42.662;23.402;2023-03-04T13:07:55;95090.34;;;10.46;77.87
13029;BME280;6581;42.662;23.402;2023-03-04T13:10:27;95084.78;;;10.55;77.29
13029;BME280;6581;42.662;23.402;2023-03-04T13:13:32;95075.22;;;10.80;77.37
13029;BME280;6581;42.662;23.402;2023-03-04T13:16:01;95075.25;;;10.84;76.58
13029;BME280;6581;42.662;23.402;2023-03-04T13:18:31;95074.53;;;10.87;76.19
13029;BME280;6581;42.662;23.402;2023-03-04T13:21:16;95068.84;;;10.85;75.61
13029;BME280;6581;42.662;23.402;2023-03-04T13:23:46;95070.22;;;10.72;75.77
13029;BME280;6581;42.662;23.402;2023-03-04T13:26:20;95068.84;;;10.51;76.52
13029;BME280;6581;42.662;23.402;2023-03-04T13:28:54;95068.34;;;10.39;77.61
13029;BME280;6581;42.662;23.402;2023-03-04T13:31:58;95059.03;;;10.52;78.43
13029;BME280;6581;42.662;23.402;2023-03-04T13:34:44;95067.63;;;10.45;78.21
13029;BME280;6581;42.662;23.402;2023-03-04T13:37:26;95068.63;;;10.30;79.55
13029;BME280;6581;42.662;23.402;2023-03-04T13:40:28;95065.31;;;10.10;80.07
13029;BME280;6581;42.662;23.402;2023-03-04T13:43:26;95062.63;;;10.07;80.10
13029;BME280;6581;42.662;23.402;2023-03-04T13:45:54;95059.03;;;9.92;81.22
13029;BME280;6581;42.662;23.402;2023-03-04T13:48:32;95054.38;;;9.86;80.92
13029;BME280;6581;42.662;23.402;2023-03-04T13:51:02;95052.47;;;9.83;81.96
13029;BME280;6581;42.662;23.402;2023-03-04T13:53:38;95057.25;;;9.73;82.37
13029;BME280;6581;42.662;23.402;2023-03-04T13:56:17;95039.53;;;9.77;82.39
13029;BME280;6581;42.662;23.402;2023-03-04T13:58:47;95046.81;;;9.84;83.39
13029;BME280;6581;42.662;23.402;2023-03-04T14:01:24;95038.00;;;9.76;83.54
13029;BME280;6581;42.662;23.402;2023-03-04T14:03:52;95038.44;;;9.78;83.30
13029;BME280;6581;42.662;23.402;2023-03-04T14:06:21;95038.09;;;9.80;84.15
13029;BME280;6581;42.662;23.402;2023-03-04T14:08:49;95033.72;;;9.95;83.28
13029;BME280;6581;42.662;23.402;2023-03-04T14:11:23;95032.59;;;9.96;84.25
13029;BME280;6581;42.662;23.402;2023-03-04T14:13:54;95030.38;;;9.98;82.50
13029;BME280;6581;42.662;23.402;2023-03-04T14:16:50;95031.19;;;10.02;83.15
13029;BME280;6581;42.662;23.402;2023-03-04T14:19:23;95021.44;;;10.09;84.08
13029;BME280;6581;42.662;23.402;2023-03-04T14:21:51;95023.72;;;10.11;82.57
13029;BME280;6581;42.662;23.402;2023-03-04T14:24:20;95021.72;;;10.01;81.99
13029;BME280;6581;42.662;23.402;2023-03-04T14:26:48;95019.69;;;9.91;81.68
13029;BME280;6581;42.662;23.402;2023-03-04T14:29:26;95020.59;;;10.02;81.74
13029;BME280;6581;42.662;23.402;2023-03-04T14:31:55;95019.97;;;10.12;81.03
13029;BME280;6581;42.662;23.402;2023-03-04T14:34:25;95017.59;;;10.33;80.76
13029;BME280;6581;42.662;23.402;2023-03-04T14:36:57;95012.47;;;10.51;80.50
13029;BME280;6581;42.662;23.402;2023-03-04T14:39:27;95008.38;;;10.57;79.88
13029;BME280;6581;42.662;23.402;2023-03-04T14:41:58;95015.91;;;10.55;79.29
13029;BME280;6581;42.662;23.402;2023-03-04T14:44:32;95014.25;;;10.40;79.73
13029;BME280;6581;42.662;23.402;2023-03-04T14:47:08;95007.13;;;10.44;78.83
13029;BME280;6581;42.662;23.402;2023-03-04T14:49:37;95006.72;;;10.42;79.00
13029;BME280;6581;42.662;23.402;2023-03-04T14:52:05;94996.38;;;10.30;80.82
13029;BME280;6581;42.662;23.402;2023-03-04T14:54:35;94997.47;;;10.25;80.92
13029;BME280;6581;42.662;23.402;2023-03-04T14:57:23;94993.25;;;10.20;80.57
13029;BME280;6581;42.662;23.402;2023-03-04T14:59:53;94993.28;;;10.24;80.08
13029;BME280;6581;42.662;23.402;2023-03-04T15:02:25;94995.59;;;10.29;80.57
13029;BME280;6581;42.662;23.402;2023-03-04T15:04:57;94995.47;;;10.18;80.35
13029;BME280;6581;42.662;23.402;2023-03-04T15:07:30;94997.84;;;10.27;79.80
13029;BME280;6581;42.662;23.402;2023-03-04T15:10:00;94994.97;;;10.39;79.71
13029;BME280;6581;42.662;23.402;2023-03-04T15:12:31;94983.00;;;10.52;79.15